Crystal Coast — WDC9132 — position and weather

sailwx.info

Track history (hours):
 
Tides and Currents Weather Stations Pressure Air Temp Water Temp Dewpoint Dewpoint Depression Visibility Wind Speed Wind Dir Waves Ship Positions

Crystal Coast

Owner: Dann Marine Towing, LC, Chesapeake City, MD. More information available from US FCC via Universal Licensing System and Coast Guard Vessel Documentation Center.

Last reported at 2017-Nov-20 00:24 UTC. Time now 2017-Nov-21 10:22 UTC.
Position N 39°15' W 076°33'.

Length 22 m; draft 2.9 m.

Type: Tug. MMSI: 36797970.

Date/timePositionNaut miles runAvg speedWind from/ knotsBaromVisibWave heightAir tempDewpointWater temp
2017-Nov-20 00:24N 39°15' W 076°33'0 0.0
2017-Nov-19 23:58N 39°15' W 076°33'0 0.0
2017-Nov-19 23:29N 39°15' W 076°33'0 0.0
2017-Nov-19 22:57N 39°15' W 076°33'0 0.0
2017-Nov-19 22:25N 39°15' W 076°33'0 0.0
2017-Nov-19 22:00N 39°15' W 076°33'0 0.0
2017-Nov-19 21:11N 39°15' W 076°33'0 0.0
2017-Nov-19 20:54N 39°15' W 076°33'0 0.0
2017-Nov-19 20:26N 39°15' W 076°33'0 0.0
2017-Nov-19 20:00N 39°15' W 076°33'0 0.0
2017-Nov-19 19:27N 39°15' W 076°33'1 2.5
2017-Nov-19 19:00N 39°15' W 076°34'0 0.0
2017-Nov-19 18:30N 39°15' W 076°34'0 0.0
2017-Nov-19 17:59N 39°15' W 076°34'1 1.5
2017-Nov-19 17:31N 39°15' W 076°34'0 0.8
2017-Nov-19 16:59N 39°15' W 076°33'0 0.0
2017-Nov-19 16:30N 39°15' W 076°33'0 0.0
2017-Nov-19 16:00N 39°15' W 076°33'0 0.0
2017-Nov-19 15:28N 39°15' W 076°33'0 0.0
2017-Nov-19 14:57N 39°15' W 076°33'0 0.0
2017-Nov-19 14:27N 39°15' W 076°33'0 0.0
2017-Nov-19 14:00N 39°15' W 076°33'0 0.0
2017-Nov-19 13:26N 39°15' W 076°33'0 0.0
2017-Nov-19 12:59N 39°15' W 076°33'0 0.0
2017-Nov-19 12:28N 39°15' W 076°33'0 0.0
2017-Nov-19 11:59N 39°15' W 076°33'0 0.0
2017-Nov-19 11:30N 39°15' W 076°33'0 0.0
2017-Nov-19 11:00N 39°15' W 076°33'0 0.0
2017-Nov-19 10:30N 39°15' W 076°33'0 0.0
2017-Nov-19 10:01N 39°15' W 076°33'0 0.0
2017-Nov-19 09:30N 39°15' W 076°33'0 0.0
2017-Nov-19 09:00N 39°15' W 076°33'0 0.0
2017-Nov-19 08:25N 39°15' W 076°33'0 0.0
2017-Nov-19 07:56N 39°15' W 076°33'0 0.0
2017-Nov-19 07:31N 39°15' W 076°33'0 0.0
2017-Nov-19 07:00N 39°15' W 076°33'0 0.0
2017-Nov-19 06:31N 39°15' W 076°33'0 0.0
2017-Nov-19 06:01N 39°15' W 076°33'0 0.0
2017-Nov-19 05:30N 39°15' W 076°33'0 0.0
2017-Nov-19 05:00N 39°15' W 076°33'0 0.0
2017-Nov-19 04:29N 39°15' W 076°33'0 0.0
2017-Nov-19 04:01N 39°15' W 076°33'0 0.0
2017-Nov-19 03:30N 39°15' W 076°33'0 0.0
2017-Nov-19 03:00N 39°15' W 076°33'0 0.0
2017-Nov-19 02:28N 39°15' W 076°33'0 0.0
2017-Nov-19 01:57N 39°15' W 076°33'0 0.0
2017-Nov-19 01:21N 39°15' W 076°33'0 0.0
2017-Nov-19 00:59N 39°15' W 076°33'0 0.0
2017-Nov-19 00:30N 39°15' W 076°33'0 0.0
2017-Nov-19 00:00N 39°15' W 076°33'0 0.0
2017-Nov-18 23:30N 39°15' W 076°33'0 0.0
2017-Nov-18 23:00N 39°15' W 076°33'0 0.0
2017-Nov-18 22:29N 39°15' W 076°33'0 0.0
2017-Nov-18 21:56N 39°15' W 076°33'0 0.0
2017-Nov-18 21:30N 39°15' W 076°33'0 0.0
2017-Nov-18 21:00N 39°15' W 076°33'0 0.0
2017-Nov-18 20:25N 39°15' W 076°33'0 0.0
2017-Nov-18 20:00N 39°15' W 076°33'0 0.0
2017-Nov-18 19:30N 39°15' W 076°33'0 0.0
2017-Nov-18 19:01N 39°15' W 076°33'0 0.0
2017-Nov-18 18:24N 39°15' W 076°33'0 0.0
2017-Nov-18 17:57N 39°15' W 076°33'0 0.0
2017-Nov-18 17:30N 39°15' W 076°33'0 0.1
2017-Nov-18 17:01N 39°15' W 076°33'0 0.1
2017-Nov-18 16:29N 39°15' W 076°33'0 0.0
2017-Nov-18 16:01N 39°15' W 076°33'0 0.0
2017-Nov-18 15:30N 39°15' W 076°33'0 0.0
2017-Nov-18 15:00N 39°15' W 076°33'0 0.1
2017-Nov-18 14:30N 39°15' W 076°33'1 1.8
2017-Nov-18 14:00N 39°15' W 076°33'3 7.0
2017-Nov-18 13:30N 39°12' W 076°30'3 6.8
2017-Nov-18 13:00N 39°11' W 076°26'4 7.1
2017-Nov-18 12:29N 39°07' W 076°24'4 7.6
2017-Nov-18 11:59N 39°04' W 076°23'4 7.6
2017-Nov-18 11:28N 38°60' W 076°23'4 7.7
2017-Nov-18 10:59N 38°56' W 076°25'4 7.7
2017-Nov-18 10:29N 38°53' W 076°26'116 2.7
2017-Nov-16 15:19N 36°57' W 076°20'3 8.4
2017-Nov-16 14:58N 36°54' W 076°20'4 7.7
2017-Nov-16 14:30N 36°51' W 076°18'3 6.0
2017-Nov-16 14:00N 36°48' W 076°18'0 0.0
2017-Nov-16 13:30N 36°48' W 076°18'0 0.1
2017-Nov-16 13:00N 36°48' W 076°18'0 0.0
2017-Nov-16 12:30N 36°48' W 076°18'0 0.0
2017-Nov-16 12:00N 36°48' W 076°18'0 0.0
2017-Nov-16 11:30N 36°48' W 076°18'0 0.5
2017-Nov-16 11:00N 36°48' W 076°18'0 0.0
2017-Nov-16 10:30N 36°48' W 076°18'0 0.0
2017-Nov-16 10:00N 36°48' W 076°18'0 0.0
2017-Nov-16 09:30N 36°48' W 076°18'0 0.0
2017-Nov-16 09:00N 36°48' W 076°18'0 0.0
2017-Nov-16 08:30N 36°48' W 076°18'0 0.0
2017-Nov-16 08:00N 36°48' W 076°18'0 0.5
2017-Nov-16 07:30N 36°48' W 076°18'0 0.1
2017-Nov-16 07:00N 36°48' W 076°18'3 5.4
2017-Nov-16 06:30N 36°51' W 076°18'3 7.0
2017-Nov-16 06:00N 36°54' W 076°20'4 7.2
2017-Nov-16 05:30N 36°57' W 076°20'107 5.4
2017-Nov-15 09:52N 38°37' W 077°09'2 6.2
2017-Nov-15 09:30N 38°39' W 077°08'4 5.6
2017-Nov-15 08:48N 38°42' W 077°05'3 6.4
2017-Nov-15 08:24N 38°43' W 077°02'3 6.8
2017-Nov-15 08:00N 38°46' W 077°02'3 6.6
2017-Nov-15 07:30N 38°49' W 077°02'3 5.7
2017-Nov-15 06:58N 38°52' W 077°00'0 0.2
2017-Nov-15 06:30N 38°52' W 077°00'0 0.0
2017-Nov-15 05:58N 38°52' W 077°00'0 0.0
2017-Nov-15 05:26N 38°52' W 077°00'0 0.0
2017-Nov-15 04:56N 38°52' W 077°00'0 0.0
2017-Nov-15 04:24N 38°52' W 077°00'0 0.0
2017-Nov-15 04:00N 38°52' W 077°00'0 0.0
2017-Nov-15 03:30N 38°52' W 077°00'0 0.0
2017-Nov-15 02:56N 38°52' W 077°00'0 0.0
2017-Nov-15 02:18N 38°52' W 077°00'0 0.0
2017-Nov-15 01:42N 38°52' W 077°00'0 0.0
2017-Nov-15 01:30N 38°52' W 077°00'0 0.0
2017-Nov-15 01:00N 38°52' W 077°00'0 0.0
2017-Nov-15 00:30N 38°52' W 077°00'0 0.0
2017-Nov-14 23:58N 38°52' W 077°00'0 0.0
2017-Nov-14 23:30N 38°52' W 077°00'0 0.0
2017-Nov-14 22:54N 38°52' W 077°00'0 0.0
2017-Nov-14 22:30N 38°52' W 077°00'0 0.0
2017-Nov-14 21:48N 38°52' W 077°00'0 0.0
2017-Nov-14 21:28N 38°52' W 077°00'0 0.0
2017-Nov-14 20:58N 38°52' W 077°00'0 0.0
2017-Nov-14 20:28N 38°52' W 077°00'0 0.0
2017-Nov-14 19:56N 38°52' W 077°00'0 0.0
2017-Nov-14 19:26N 38°52' W 077°00'0 0.0
2017-Nov-14 18:56N 38°52' W 077°00'0 0.0
2017-Nov-14 18:30N 38°52' W 077°00'0 0.0
2017-Nov-14 17:56N 38°52' W 077°00'0 0.0
2017-Nov-14 17:30N 38°52' W 077°00'0 0.0
2017-Nov-14 16:54N 38°52' W 077°00'0 0.0
2017-Nov-14 16:20N 38°52' W 077°00'0 0.0
2017-Nov-14 15:58N 38°52' W 077°00'0 0.0
2017-Nov-14 15:29N 38°52' W 077°00'0 0.0
2017-Nov-14 14:55N 38°52' W 077°00'0 0.0
2017-Nov-14 14:27N 38°52' W 077°00'0 0.0
2017-Nov-14 13:57N 38°52' W 077°00'0 0.0
2017-Nov-14 13:29N 38°52' W 077°00'0 0.0
2017-Nov-14 12:52N 38°52' W 077°00'0 0.0
2017-Nov-14 12:27N 38°52' W 077°00'0 0.0
2017-Nov-14 12:00N 38°52' W 077°00'0 0.0
2017-Nov-14 11:27N 38°52' W 077°00'0 0.0
2017-Nov-14 11:00N 38°52' W 077°00'0 0.0
2017-Nov-14 10:30N 38°52' W 077°00'0 0.0
2017-Nov-14 10:00N 38°52' W 077°00'0 0.0
2017-Nov-14 09:30N 38°52' W 077°00'0 0.0
2017-Nov-14 08:57N 38°52' W 077°00'0 0.0
2017-Nov-14 08:18N 38°52' W 077°00'0 0.0
2017-Nov-14 08:00N 38°52' W 077°00'0 0.0
2017-Nov-14 07:26N 38°52' W 077°00'0 0.0
2017-Nov-14 06:56N 38°52' W 077°00'0 0.0
2017-Nov-14 06:28N 38°52' W 077°00'0 0.0
2017-Nov-14 05:58N 38°52' W 077°00'0 0.0
2017-Nov-14 05:20N 38°52' W 077°00'0 0.0
2017-Nov-14 05:00N 38°52' W 077°00'0 0.0
2017-Nov-14 04:27N 38°52' W 077°00'0 0.0
2017-Nov-14 03:59N 38°52' W 077°00'0 0.0
2017-Nov-14 03:26N 38°52' W 077°00'0 0.0
2017-Nov-14 03:00N 38°52' W 077°00'0 0.0
2017-Nov-14 02:25N 38°52' W 077°00'0 0.0
2017-Nov-14 01:58N 38°52' W 077°00'0 0.0
2017-Nov-14 01:27N 38°52' W 077°00'0 0.0
2017-Nov-14 00:59N 38°52' W 077°00'0 0.0
2017-Nov-14 00:25N 38°52' W 077°00'0 0.0
2017-Nov-13 23:57N 38°52' W 077°00'0 0.0
2017-Nov-13 23:30N 38°52' W 077°00'0 0.0
2017-Nov-13 22:51N 38°52' W 077°00'0 0.0
2017-Nov-13 22:25N 38°52' W 077°00'0 0.0
2017-Nov-13 22:00N 38°52' W 077°00'  
2017-Nov-11 15:48N 38°50' W 076°26'7 7.8
2017-Nov-11 14:52N 38°57' W 076°24'3 8.1
2017-Nov-11 14:30N 38°60' W 076°23'6 7.7
2017-Nov-11 13:39N 39°06' W 076°24'5 7.5
2017-Nov-11 13:01N 39°11' W 076°26'0 7.9
2017-Nov-11 13:00N 39°11' W 076°27'4 7.5
2017-Nov-11 12:30N 39°12' W 076°31'4 7.4
2017-Nov-11 12:00N 39°15' W 076°33'0 0.2
2017-Nov-11 11:30N 39°15' W 076°33'0 0.0
2017-Nov-11 11:00N 39°15' W 076°33'0 0.0
2017-Nov-11 10:30N 39°15' W 076°33'0 0.0
2017-Nov-11 10:00N 39°15' W 076°33'0 0.0
2017-Nov-11 09:30N 39°15' W 076°33'0 0.0
2017-Nov-11 09:00N 39°15' W 076°33'0 0.0
2017-Nov-11 08:30N 39°15' W 076°33'0 0.0
2017-Nov-11 08:00N 39°15' W 076°33'0 0.0
2017-Nov-11 07:30N 39°15' W 076°33'0 0.0
2017-Nov-11 07:00N 39°15' W 076°33'0 0.0
2017-Nov-11 06:30N 39°15' W 076°33'0 0.0
2017-Nov-11 06:00N 39°15' W 076°33'0 0.0
2017-Nov-11 05:30N 39°15' W 076°33'0 0.0
2017-Nov-11 05:00N 39°15' W 076°33'0 0.0
2017-Nov-11 04:30N 39°15' W 076°33'0 0.0
2017-Nov-11 04:00N 39°15' W 076°33'0 0.0
2017-Nov-11 03:30N 39°15' W 076°33'0 0.0
2017-Nov-11 03:00N 39°15' W 076°33'0 0.0
2017-Nov-11 02:30N 39°15' W 076°33'0 0.0
2017-Nov-11 02:00N 39°15' W 076°33'0 0.0
2017-Nov-11 01:30N 39°15' W 076°33'0 0.0
2017-Nov-11 01:00N 39°15' W 076°33'0 0.3
2017-Nov-11 00:30N 39°15' W 076°33'0 0.5
2017-Nov-11 00:00N 39°15' W 076°33'0 0.2
2017-Nov-10 23:30N 39°15' W 076°33'0 1.0
2017-Nov-10 23:00N 39°15' W 076°33'0 0.2
2017-Nov-10 22:30N 39°16' W 076°33'0 0.0
2017-Nov-10 22:00N 39°16' W 076°33'0 0.0
2017-Nov-10 21:30N 39°16' W 076°33'0 0.0
2017-Nov-10 21:00N 39°16' W 076°33'0 0.0
2017-Nov-10 20:30N 39°16' W 076°33'0 0.0
2017-Nov-10 20:00N 39°16' W 076°33'0 0.0
2017-Nov-10 19:30N 39°16' W 076°33'0 0.0
2017-Nov-10 19:00N 39°16' W 076°33'0 0.0
2017-Nov-10 18:30N 39°16' W 076°33'0 0.0
2017-Nov-10 18:00N 39°16' W 076°33'0 0.0
2017-Nov-10 17:30N 39°16' W 076°33'0 0.0
2017-Nov-10 17:00N 39°16' W 076°33'0 0.0
2017-Nov-10 16:30N 39°16' W 076°33'0 0.0
2017-Nov-10 16:00N 39°16' W 076°33'0 0.0
2017-Nov-10 15:30N 39°16' W 076°33'0 0.0
2017-Nov-10 15:00N 39°16' W 076°33'0 0.0
2017-Nov-10 14:30N 39°16' W 076°33'0 0.0
2017-Nov-10 14:00N 39°16' W 076°33'0 0.0
2017-Nov-10 13:30N 39°16' W 076°33'0 0.0
2017-Nov-10 13:00N 39°16' W 076°33'0 0.0
2017-Nov-10 12:30N 39°16' W 076°33'0 0.0
2017-Nov-10 12:00N 39°16' W 076°33'0 0.0
2017-Nov-10 11:30N 39°16' W 076°33'0 0.0
2017-Nov-10 11:00N 39°16' W 076°33'0 0.0
2017-Nov-10 10:30N 39°16' W 076°33'0 0.0
2017-Nov-10 10:00N 39°16' W 076°33'0 0.0
2017-Nov-10 09:30N 39°16' W 076°33'0 0.0
2017-Nov-10 09:00N 39°16' W 076°33'0 0.0
2017-Nov-10 08:30N 39°16' W 076°33'0 0.0
2017-Nov-10 08:00N 39°16' W 076°33'0 0.0
2017-Nov-10 07:30N 39°16' W 076°33'0 0.0
2017-Nov-10 07:00N 39°16' W 076°33'0 0.0
2017-Nov-10 06:30N 39°16' W 076°33'0 0.2
2017-Nov-10 06:00N 39°15' W 076°33'2 3.2
2017-Nov-10 05:30N 39°14' W 076°33'4 7.3
2017-Nov-10 05:00N 39°12' W 076°29'3 6.5
2017-Nov-10 04:30N 39°11' W 076°25'4 6.8
2017-Nov-10 03:52N 39°14' W 076°20'2 6.6
2017-Nov-10 03:30N 39°15' W 076°17'3 6.3
2017-Nov-10 02:59N 39°17' W 076°14'3 6.4
2017-Nov-10 02:30N 39°20' W 076°12'3 6.7
2017-Nov-10 02:00N 39°22' W 076°09'4 7.1
2017-Nov-10 01:30N 39°23' W 076°05'4 7.5
2017-Nov-10 01:00N 39°26' W 076°01'4 7.7
2017-Nov-10 00:30N 39°29' W 075°57'  
Track history (hours):
 
Tides and Currents Weather Stations Pressure Air Temp Water Temp Dewpoint Dewpoint Depression Visibility Wind Speed Wind Dir Waves Ship Positions

Crystal Coast

Owner: Dann Marine Towing, LC, Chesapeake City, MD. More information available from US FCC via Universal Licensing System and Coast Guard Vessel Documentation Center.

Last reported at 2017-Nov-20 00:24 UTC. Time now 2017-Nov-21 10:22 UTC.
Position N 39°15' W 076°33'.

Length 22 m; draft 2.9 m.

Type: Tug. MMSI: 36797970.

Date/timePositionNaut miles runAvg speedWind from/ knotsBaromVisibWave heightAir tempDewpointWater temp
2017-Nov-20 00:24N 39°15' W 076°33'0 0.0
2017-Nov-19 23:58N 39°15' W 076°33'0 0.0
2017-Nov-19 23:29N 39°15' W 076°33'0 0.0
2017-Nov-19 22:57N 39°15' W 076°33'0 0.0
2017-Nov-19 22:25N 39°15' W 076°33'0 0.0
2017-Nov-19 22:00N 39°15' W 076°33'0 0.0
2017-Nov-19 21:11N 39°15' W 076°33'0 0.0
2017-Nov-19 20:54N 39°15' W 076°33'0 0.0
2017-Nov-19 20:26N 39°15' W 076°33'0 0.0
2017-Nov-19 20:00N 39°15' W 076°33'0 0.0
2017-Nov-19 19:27N 39°15' W 076°33'1 2.5
2017-Nov-19 19:00N 39°15' W 076°34'0 0.0
2017-Nov-19 18:30N 39°15' W 076°34'0 0.0
2017-Nov-19 17:59N 39°15' W 076°34'1 1.5
2017-Nov-19 17:31N 39°15' W 076°34'0 0.8
2017-Nov-19 16:59N 39°15' W 076°33'0 0.0
2017-Nov-19 16:30N 39°15' W 076°33'0 0.0
2017-Nov-19 16:00N 39°15' W 076°33'0 0.0
2017-Nov-19 15:28N 39°15' W 076°33'0 0.0
2017-Nov-19 14:57N 39°15' W 076°33'0 0.0
2017-Nov-19 14:27N 39°15' W 076°33'0 0.0
2017-Nov-19 14:00N 39°15' W 076°33'0 0.0
2017-Nov-19 13:26N 39°15' W 076°33'0 0.0
2017-Nov-19 12:59N 39°15' W 076°33'0 0.0
2017-Nov-19 12:28N 39°15' W 076°33'0 0.0
2017-Nov-19 11:59N 39°15' W 076°33'0 0.0
2017-Nov-19 11:30N 39°15' W 076°33'0 0.0
2017-Nov-19 11:00N 39°15' W 076°33'0 0.0
2017-Nov-19 10:30N 39°15' W 076°33'0 0.0
2017-Nov-19 10:01N 39°15' W 076°33'0 0.0
2017-Nov-19 09:30N 39°15' W 076°33'0 0.0
2017-Nov-19 09:00N 39°15' W 076°33'0 0.0
2017-Nov-19 08:25N 39°15' W 076°33'0 0.0
2017-Nov-19 07:56N 39°15' W 076°33'0 0.0
2017-Nov-19 07:31N 39°15' W 076°33'0 0.0
2017-Nov-19 07:00N 39°15' W 076°33'0 0.0
2017-Nov-19 06:31N 39°15' W 076°33'0 0.0
2017-Nov-19 06:01N 39°15' W 076°33'0 0.0
2017-Nov-19 05:30N 39°15' W 076°33'0 0.0
2017-Nov-19 05:00N 39°15' W 076°33'0 0.0
2017-Nov-19 04:29N 39°15' W 076°33'0 0.0
2017-Nov-19 04:01N 39°15' W 076°33'0 0.0
2017-Nov-19 03:30N 39°15' W 076°33'0 0.0
2017-Nov-19 03:00N 39°15' W 076°33'0 0.0
2017-Nov-19 02:28N 39°15' W 076°33'0 0.0
2017-Nov-19 01:57N 39°15' W 076°33'0 0.0
2017-Nov-19 01:21N 39°15' W 076°33'0 0.0
2017-Nov-19 00:59N 39°15' W 076°33'0 0.0
2017-Nov-19 00:30N 39°15' W 076°33'0 0.0
2017-Nov-19 00:00N 39°15' W 076°33'0 0.0
2017-Nov-18 23:30N 39°15' W 076°33'0 0.0
2017-Nov-18 23:00N 39°15' W 076°33'0 0.0
2017-Nov-18 22:29N 39°15' W 076°33'0 0.0
2017-Nov-18 21:56N 39°15' W 076°33'0 0.0
2017-Nov-18 21:30N 39°15' W 076°33'0 0.0
2017-Nov-18 21:00N 39°15' W 076°33'0 0.0
2017-Nov-18 20:25N 39°15' W 076°33'0 0.0
2017-Nov-18 20:00N 39°15' W 076°33'0 0.0
2017-Nov-18 19:30N 39°15' W 076°33'0 0.0
2017-Nov-18 19:01N 39°15' W 076°33'0 0.0
2017-Nov-18 18:24N 39°15' W 076°33'0 0.0
2017-Nov-18 17:57N 39°15' W 076°33'0 0.0
2017-Nov-18 17:30N 39°15' W 076°33'0 0.1
2017-Nov-18 17:01N 39°15' W 076°33'0 0.1
2017-Nov-18 16:29N 39°15' W 076°33'0 0.0
2017-Nov-18 16:01N 39°15' W 076°33'0 0.0
2017-Nov-18 15:30N 39°15' W 076°33'0 0.0
2017-Nov-18 15:00N 39°15' W 076°33'0 0.1
2017-Nov-18 14:30N 39°15' W 076°33'1 1.8
2017-Nov-18 14:00N 39°15' W 076°33'3 7.0
2017-Nov-18 13:30N 39°12' W 076°30'3 6.8
2017-Nov-18 13:00N 39°11' W 076°26'4 7.1
2017-Nov-18 12:29N 39°07' W 076°24'4 7.6
2017-Nov-18 11:59N 39°04' W 076°23'4 7.6
2017-Nov-18 11:28N 38°60' W 076°23'4 7.7
2017-Nov-18 10:59N 38°56' W 076°25'4 7.7
2017-Nov-18 10:29N 38°53' W 076°26'116 2.7
2017-Nov-16 15:19N 36°57' W 076°20'3 8.4
2017-Nov-16 14:58N 36°54' W 076°20'4 7.7
2017-Nov-16 14:30N 36°51' W 076°18'3 6.0
2017-Nov-16 14:00N 36°48' W 076°18'0 0.0
2017-Nov-16 13:30N 36°48' W 076°18'0 0.1
2017-Nov-16 13:00N 36°48' W 076°18'0 0.0
2017-Nov-16 12:30N 36°48' W 076°18'0 0.0
2017-Nov-16 12:00N 36°48' W 076°18'0 0.0
2017-Nov-16 11:30N 36°48' W 076°18'0 0.5
2017-Nov-16 11:00N 36°48' W 076°18'0 0.0
2017-Nov-16 10:30N 36°48' W 076°18'0 0.0
2017-Nov-16 10:00N 36°48' W 076°18'0 0.0
2017-Nov-16 09:30N 36°48' W 076°18'0 0.0
2017-Nov-16 09:00N 36°48' W 076°18'0 0.0
2017-Nov-16 08:30N 36°48' W 076°18'0 0.0
2017-Nov-16 08:00N 36°48' W 076°18'0 0.5
2017-Nov-16 07:30N 36°48' W 076°18'0 0.1
2017-Nov-16 07:00N 36°48' W 076°18'3 5.4
2017-Nov-16 06:30N 36°51' W 076°18'3 7.0
2017-Nov-16 06:00N 36°54' W 076°20'4 7.2
2017-Nov-16 05:30N 36°57' W 076°20'107 5.4
2017-Nov-15 09:52N 38°37' W 077°09'2 6.2
2017-Nov-15 09:30N 38°39' W 077°08'4 5.6
2017-Nov-15 08:48N 38°42' W 077°05'3 6.4
2017-Nov-15 08:24N 38°43' W 077°02'3 6.8
2017-Nov-15 08:00N 38°46' W 077°02'3 6.6
2017-Nov-15 07:30N 38°49' W 077°02'3 5.7
2017-Nov-15 06:58N 38°52' W 077°00'0 0.2
2017-Nov-15 06:30N 38°52' W 077°00'0 0.0
2017-Nov-15 05:58N 38°52' W 077°00'0 0.0
2017-Nov-15 05:26N 38°52' W 077°00'0 0.0
2017-Nov-15 04:56N 38°52' W 077°00'0 0.0
2017-Nov-15 04:24N 38°52' W 077°00'0 0.0
2017-Nov-15 04:00N 38°52' W 077°00'0 0.0
2017-Nov-15 03:30N 38°52' W 077°00'0 0.0
2017-Nov-15 02:56N 38°52' W 077°00'0 0.0
2017-Nov-15 02:18N 38°52' W 077°00'0 0.0
2017-Nov-15 01:42N 38°52' W 077°00'0 0.0
2017-Nov-15 01:30N 38°52' W 077°00'0 0.0
2017-Nov-15 01:00N 38°52' W 077°00'0 0.0
2017-Nov-15 00:30N 38°52' W 077°00'0 0.0
2017-Nov-14 23:58N 38°52' W 077°00'0 0.0
2017-Nov-14 23:30N 38°52' W 077°00'0 0.0
2017-Nov-14 22:54N 38°52' W 077°00'0 0.0
2017-Nov-14 22:30N 38°52' W 077°00'0 0.0
2017-Nov-14 21:48N 38°52' W 077°00'0 0.0
2017-Nov-14 21:28N 38°52' W 077°00'0 0.0
2017-Nov-14 20:58N 38°52' W 077°00'0 0.0
2017-Nov-14 20:28N 38°52' W 077°00'0 0.0
2017-Nov-14 19:56N 38°52' W 077°00'0 0.0
2017-Nov-14 19:26N 38°52' W 077°00'0 0.0
2017-Nov-14 18:56N 38°52' W 077°00'0 0.0
2017-Nov-14 18:30N 38°52' W 077°00'0 0.0
2017-Nov-14 17:56N 38°52' W 077°00'0 0.0
2017-Nov-14 17:30N 38°52' W 077°00'0 0.0
2017-Nov-14 16:54N 38°52' W 077°00'0 0.0
2017-Nov-14 16:20N 38°52' W 077°00'0 0.0
2017-Nov-14 15:58N 38°52' W 077°00'0 0.0
2017-Nov-14 15:29N 38°52' W 077°00'0 0.0
2017-Nov-14 14:55N 38°52' W 077°00'0 0.0
2017-Nov-14 14:27N 38°52' W 077°00'0 0.0
2017-Nov-14 13:57N 38°52' W 077°00'0 0.0
2017-Nov-14 13:29N 38°52' W 077°00'0 0.0
2017-Nov-14 12:52N 38°52' W 077°00'0 0.0
2017-Nov-14 12:27N 38°52' W 077°00'0 0.0
2017-Nov-14 12:00N 38°52' W 077°00'0 0.0
2017-Nov-14 11:27N 38°52' W 077°00'0 0.0
2017-Nov-14 11:00N 38°52' W 077°00'0 0.0
2017-Nov-14 10:30N 38°52' W 077°00'0 0.0
2017-Nov-14 10:00N 38°52' W 077°00'0 0.0
2017-Nov-14 09:30N 38°52' W 077°00'0 0.0
2017-Nov-14 08:57N 38°52' W 077°00'0 0.0
2017-Nov-14 08:18N 38°52' W 077°00'0 0.0
2017-Nov-14 08:00N 38°52' W 077°00'0 0.0
2017-Nov-14 07:26N 38°52' W 077°00'0 0.0
2017-Nov-14 06:56N 38°52' W 077°00'0 0.0
2017-Nov-14 06:28N 38°52' W 077°00'0 0.0
2017-Nov-14 05:58N 38°52' W 077°00'0 0.0
2017-Nov-14 05:20N 38°52' W 077°00'0 0.0
2017-Nov-14 05:00N 38°52' W 077°00'0 0.0
2017-Nov-14 04:27N 38°52' W 077°00'0 0.0
2017-Nov-14 03:59N 38°52' W 077°00'0 0.0
2017-Nov-14 03:26N 38°52' W 077°00'0 0.0
2017-Nov-14 03:00N 38°52' W 077°00'0 0.0
2017-Nov-14 02:25N 38°52' W 077°00'0 0.0
2017-Nov-14 01:58N 38°52' W 077°00'0 0.0
2017-Nov-14 01:27N 38°52' W 077°00'0 0.0
2017-Nov-14 00:59N 38°52' W 077°00'0 0.0
2017-Nov-14 00:25N 38°52' W 077°00'0 0.0
2017-Nov-13 23:57N 38°52' W 077°00'0 0.0
2017-Nov-13 23:30N 38°52' W 077°00'0 0.0
2017-Nov-13 22:51N 38°52' W 077°00'0 0.0
2017-Nov-13 22:25N 38°52' W 077°00'0 0.0
2017-Nov-13 22:00N 38°52' W 077°00'  
2017-Nov-11 15:48N 38°50' W 076°26'7 7.8
2017-Nov-11 14:52N 38°57' W 076°24'3 8.1
2017-Nov-11 14:30N 38°60' W 076°23'6 7.7
2017-Nov-11 13:39N 39°06' W 076°24'5 7.5
2017-Nov-11 13:01N 39°11' W 076°26'0 7.9
2017-Nov-11 13:00N 39°11' W 076°27'4 7.5
2017-Nov-11 12:30N 39°12' W 076°31'4 7.4
2017-Nov-11 12:00N 39°15' W 076°33'0 0.2
2017-Nov-11 11:30N 39°15' W 076°33'0 0.0
2017-Nov-11 11:00N 39°15' W 076°33'0 0.0
2017-Nov-11 10:30N 39°15' W 076°33'0 0.0
2017-Nov-11 10:00N 39°15' W 076°33'0 0.0
2017-Nov-11 09:30N 39°15' W 076°33'0 0.0
2017-Nov-11 09:00N 39°15' W 076°33'0 0.0
2017-Nov-11 08:30N 39°15' W 076°33'0 0.0
2017-Nov-11 08:00N 39°15' W 076°33'0 0.0
2017-Nov-11 07:30N 39°15' W 076°33'0 0.0
2017-Nov-11 07:00N 39°15' W 076°33'0 0.0
2017-Nov-11 06:30N 39°15' W 076°33'0 0.0
2017-Nov-11 06:00N 39°15' W 076°33'0 0.0
2017-Nov-11 05:30N 39°15' W 076°33'0 0.0
2017-Nov-11 05:00N 39°15' W 076°33'0 0.0
2017-Nov-11 04:30N 39°15' W 076°33'0 0.0
2017-Nov-11 04:00N 39°15' W 076°33'0 0.0
2017-Nov-11 03:30N 39°15' W 076°33'0 0.0
2017-Nov-11 03:00N 39°15' W 076°33'0 0.0
2017-Nov-11 02:30N 39°15' W 076°33'0 0.0
2017-Nov-11 02:00N 39°15' W 076°33'0 0.0
2017-Nov-11 01:30N 39°15' W 076°33'0 0.0
2017-Nov-11 01:00N 39°15' W 076°33'0 0.3
2017-Nov-11 00:30N 39°15' W 076°33'0 0.5
2017-Nov-11 00:00N 39°15' W 076°33'0 0.2
2017-Nov-10 23:30N 39°15' W 076°33'0 1.0
2017-Nov-10 23:00N 39°15' W 076°33'0 0.2
2017-Nov-10 22:30N 39°16' W 076°33'0 0.0
2017-Nov-10 22:00N 39°16' W 076°33'0 0.0
2017-Nov-10 21:30N 39°16' W 076°33'0 0.0
2017-Nov-10 21:00N 39°16' W 076°33'0 0.0
2017-Nov-10 20:30N 39°16' W 076°33'0 0.0
2017-Nov-10 20:00N 39°16' W 076°33'0 0.0
2017-Nov-10 19:30N 39°16' W 076°33'0 0.0
2017-Nov-10 19:00N 39°16' W 076°33'0 0.0
2017-Nov-10 18:30N 39°16' W 076°33'0 0.0
2017-Nov-10 18:00N 39°16' W 076°33'0 0.0
2017-Nov-10 17:30N 39°16' W 076°33'0 0.0
2017-Nov-10 17:00N 39°16' W 076°33'0 0.0
2017-Nov-10 16:30N 39°16' W 076°33'0 0.0
2017-Nov-10 16:00N 39°16' W 076°33'0 0.0
2017-Nov-10 15:30N 39°16' W 076°33'0 0.0
2017-Nov-10 15:00N 39°16' W 076°33'0 0.0
2017-Nov-10 14:30N 39°16' W 076°33'0 0.0
2017-Nov-10 14:00N 39°16' W 076°33'0 0.0
2017-Nov-10 13:30N 39°16' W 076°33'0 0.0
2017-Nov-10 13:00N 39°16' W 076°33'0 0.0
2017-Nov-10 12:30N 39°16' W 076°33'0 0.0
2017-Nov-10 12:00N 39°16' W 076°33'0 0.0
2017-Nov-10 11:30N 39°16' W 076°33'0 0.0
2017-Nov-10 11:00N 39°16' W 076°33'0 0.0
2017-Nov-10 10:30N 39°16' W 076°33'0 0.0
2017-Nov-10 10:00N 39°16' W 076°33'0 0.0
2017-Nov-10 09:30N 39°16' W 076°33'0 0.0
2017-Nov-10 09:00N 39°16' W 076°33'0 0.0
2017-Nov-10 08:30N 39°16' W 076°33'0 0.0
2017-Nov-10 08:00N 39°16' W 076°33'0 0.0
2017-Nov-10 07:30N 39°16' W 076°33'0 0.0
2017-Nov-10 07:00N 39°16' W 076°33'0 0.0
2017-Nov-10 06:30N 39°16' W 076°33'0 0.2
2017-Nov-10 06:00N 39°15' W 076°33'2 3.2
2017-Nov-10 05:30N 39°14' W 076°33'4 7.3
2017-Nov-10 05:00N 39°12' W 076°29'3 6.5
2017-Nov-10 04:30N 39°11' W 076°25'4 6.8
2017-Nov-10 03:52N 39°14' W 076°20'2 6.6
2017-Nov-10 03:30N 39°15' W 076°17'3 6.3
2017-Nov-10 02:59N 39°17' W 076°14'3 6.4
2017-Nov-10 02:30N 39°20' W 076°12'3 6.7
2017-Nov-10 02:00N 39°22' W 076°09'4 7.1
2017-Nov-10 01:30N 39°23' W 076°05'4 7.5
2017-Nov-10 01:00N 39°26' W 076°01'4 7.7
2017-Nov-10 00:30N 39°29' W 075°57'  

Dump ship's entire track history